Rotterdam — PDGS — position and weather

sailwx.info

Track history (hours):
 
Tides and Currents Weather Stations Pressure Air Temp Water Temp Dewpoint Dewpoint Depression Visibility Wind Speed Wind Dir Waves Ship Positions

Rotterdam

Operator: Holland America Line

Last reported at 2019-Mar-17 20:10 UTC. Time now 2019-Mar-25 23:56 UTC.
Position N 14°02' W 061°02'.
Warning: this ship's position is 8 days out of date.

Length 228 m; beam 29 m.

Type: Ship. MMSI: 24616700.

Date/timePositionNaut miles runAvg speedWind from/ knotsBaromVisibWave heightAir tempDewpointWater temp
2019-Mar-17 20:10N 14°02' W 061°02'3 7.3
2019-Mar-17 19:48N 14°01' W 060°60'0 0.1
2019-Mar-17 18:44N 14°01' W 060°60'0 0.0
2019-Mar-17 16:02N 14°01' W 060°60'0 0.0
2019-Mar-17 15:26N 14°01' W 060°60'0 0.0
2019-Mar-17 14:02N 14°01' W 060°60'0 0.0
2019-Mar-17 13:56N 14°01' W 060°60'0 0.0
2019-Mar-17 12:44N 14°01' W 060°60'0 0.0
2019-Mar-17 11:59N 14°01' W 060°60'2 4.4
2019-Mar-17 11:30N 14°02' W 061°01'0 0.7
2019-Mar-17 10:56N 14°02' W 061°02'0 1.1
2019-Mar-17 10:30N 14°02' W 061°02'611.2
2019-Mar-17 10:00N 14°05' W 061°07'1014.3
2019-Mar-17 09:17N 14°09' W 061°16'714.7
2019-Mar-17 08:48N 14°16' W 061°19'414.9
2019-Mar-17 08:30N 14°20' W 061°21'1115.5
2019-Mar-17 07:49N 14°30' W 061°25'515.0
2019-Mar-17 07:30N 14°34' W 061°27'815.8
2019-Mar-17 07:01N 14°41' W 061°30'187 7.7
2019-Mar-16 06:46N 17°34' W 062°45'516.8
2019-Mar-16 06:29N 17°36' W 062°50'714.4
2019-Mar-16 05:59N 17°39' W 062°57'613.2
2019-Mar-16 05:31N 17°42' W 063°03'713.3
2019-Mar-16 04:59N 17°45' W 063°09'813.9
2019-Mar-16 04:24N 17°49' W 063°17'614.1
2019-Mar-16 03:59N 17°51' W 063°22'813.7
2019-Mar-16 03:26N 17°54' W 063°30'915.0
2019-Mar-16 02:52N 17°56' W 063°38'613.9
2019-Mar-16 02:28N 17°57' W 063°44'613.8
2019-Mar-16 02:00N 17°58' W 063°51'5314.0
2019-Mar-15 22:12N 18°10' W 064°45'314.5
2019-Mar-15 22:00N 18°10' W 064°48'713.1
2019-Mar-15 21:30N 18°13' W 064°55'4 0.4
2019-Mar-15 10:57N 18°17' W 064°56'  
2019-Mar-10 22:06N 27°47' W 082°31'215.0
2019-Mar-10 22:00N 27°48' W 082°30'612.6
2019-Mar-10 21:30N 27°53' W 082°26'3 5.8
2019-Mar-10 21:00N 27°56' W 082°27'1 1.8
2019-Mar-10 20:30N 27°57' W 082°27'0 0.0
2019-Mar-10 20:00N 27°57' W 082°27'0 0.0
2019-Mar-10 19:30N 27°57' W 082°27'0 0.0
2019-Mar-10 19:00N 27°57' W 082°27'0 0.0
2019-Mar-10 18:30N 27°57' W 082°27'0 0.0
2019-Mar-10 18:00N 27°57' W 082°27'0 0.0
2019-Mar-10 17:30N 27°57' W 082°27'0 0.0
2019-Mar-10 17:00N 27°57' W 082°27'0 0.0
2019-Mar-10 16:30N 27°57' W 082°27'0 0.0
2019-Mar-10 16:00N 27°57' W 082°27'0 0.0
2019-Mar-10 15:30N 27°57' W 082°27'0 0.0
2019-Mar-10 15:00N 27°57' W 082°27'0 0.0
2019-Mar-10 14:30N 27°57' W 082°27'0 0.0
2019-Mar-10 14:00N 27°57' W 082°27'0 0.0
2019-Mar-10 13:30N 27°57' W 082°27'0 0.0
2019-Mar-10 13:00N 27°57' W 082°27'0 0.0
2019-Mar-10 12:30N 27°57' W 082°27'0 0.0
2019-Mar-10 12:00N 27°57' W 082°27'0 0.0
2019-Mar-10 11:30N 27°57' W 082°27'0 0.0
2019-Mar-10 11:00N 27°57' W 082°27'0 0.0
2019-Mar-10 10:30N 27°57' W 082°27'0 0.9
2019-Mar-10 10:00N 27°56' W 082°27'2 4.5
2019-Mar-10 09:31N 27°54' W 082°26'611.3
2019-Mar-10 09:00N 27°49' W 082°27'  
Track history (hours):
 
Tides and Currents Weather Stations Pressure Air Temp Water Temp Dewpoint Dewpoint Depression Visibility Wind Speed Wind Dir Waves Ship Positions

Rotterdam

Operator: Holland America Line

Last reported at 2019-Mar-17 20:10 UTC. Time now 2019-Mar-25 23:56 UTC.
Position N 14°02' W 061°02'.
Warning: this ship's position is 8 days out of date.

Length 228 m; beam 29 m.

Type: Ship. MMSI: 24616700.

Date/timePositionNaut miles runAvg speedWind from/ knotsBaromVisibWave heightAir tempDewpointWater temp
2019-Mar-17 20:10N 14°02' W 061°02'3 7.3
2019-Mar-17 19:48N 14°01' W 060°60'0 0.1
2019-Mar-17 18:44N 14°01' W 060°60'0 0.0
2019-Mar-17 16:02N 14°01' W 060°60'0 0.0
2019-Mar-17 15:26N 14°01' W 060°60'0 0.0
2019-Mar-17 14:02N 14°01' W 060°60'0 0.0
2019-Mar-17 13:56N 14°01' W 060°60'0 0.0
2019-Mar-17 12:44N 14°01' W 060°60'0 0.0
2019-Mar-17 11:59N 14°01' W 060°60'2 4.4
2019-Mar-17 11:30N 14°02' W 061°01'0 0.7
2019-Mar-17 10:56N 14°02' W 061°02'0 1.1
2019-Mar-17 10:30N 14°02' W 061°02'611.2
2019-Mar-17 10:00N 14°05' W 061°07'1014.3
2019-Mar-17 09:17N 14°09' W 061°16'714.7
2019-Mar-17 08:48N 14°16' W 061°19'414.9
2019-Mar-17 08:30N 14°20' W 061°21'1115.5
2019-Mar-17 07:49N 14°30' W 061°25'515.0
2019-Mar-17 07:30N 14°34' W 061°27'815.8
2019-Mar-17 07:01N 14°41' W 061°30'187 7.7
2019-Mar-16 06:46N 17°34' W 062°45'516.8
2019-Mar-16 06:29N 17°36' W 062°50'714.4
2019-Mar-16 05:59N 17°39' W 062°57'613.2
2019-Mar-16 05:31N 17°42' W 063°03'713.3
2019-Mar-16 04:59N 17°45' W 063°09'813.9
2019-Mar-16 04:24N 17°49' W 063°17'614.1
2019-Mar-16 03:59N 17°51' W 063°22'813.7
2019-Mar-16 03:26N 17°54' W 063°30'915.0
2019-Mar-16 02:52N 17°56' W 063°38'613.9
2019-Mar-16 02:28N 17°57' W 063°44'613.8
2019-Mar-16 02:00N 17°58' W 063°51'5314.0
2019-Mar-15 22:12N 18°10' W 064°45'314.5
2019-Mar-15 22:00N 18°10' W 064°48'713.1
2019-Mar-15 21:30N 18°13' W 064°55'4 0.4
2019-Mar-15 10:57N 18°17' W 064°56'  
2019-Mar-10 22:06N 27°47' W 082°31'215.0
2019-Mar-10 22:00N 27°48' W 082°30'612.6
2019-Mar-10 21:30N 27°53' W 082°26'3 5.8
2019-Mar-10 21:00N 27°56' W 082°27'1 1.8
2019-Mar-10 20:30N 27°57' W 082°27'0 0.0
2019-Mar-10 20:00N 27°57' W 082°27'0 0.0
2019-Mar-10 19:30N 27°57' W 082°27'0 0.0
2019-Mar-10 19:00N 27°57' W 082°27'0 0.0
2019-Mar-10 18:30N 27°57' W 082°27'0 0.0
2019-Mar-10 18:00N 27°57' W 082°27'0 0.0
2019-Mar-10 17:30N 27°57' W 082°27'0 0.0
2019-Mar-10 17:00N 27°57' W 082°27'0 0.0
2019-Mar-10 16:30N 27°57' W 082°27'0 0.0
2019-Mar-10 16:00N 27°57' W 082°27'0 0.0
2019-Mar-10 15:30N 27°57' W 082°27'0 0.0
2019-Mar-10 15:00N 27°57' W 082°27'0 0.0
2019-Mar-10 14:30N 27°57' W 082°27'0 0.0
2019-Mar-10 14:00N 27°57' W 082°27'0 0.0
2019-Mar-10 13:30N 27°57' W 082°27'0 0.0
2019-Mar-10 13:00N 27°57' W 082°27'0 0.0
2019-Mar-10 12:30N 27°57' W 082°27'0 0.0
2019-Mar-10 12:00N 27°57' W 082°27'0 0.0
2019-Mar-10 11:30N 27°57' W 082°27'0 0.0
2019-Mar-10 11:00N 27°57' W 082°27'0 0.0
2019-Mar-10 10:30N 27°57' W 082°27'0 0.9
2019-Mar-10 10:00N 27°56' W 082°27'2 4.5
2019-Mar-10 09:31N 27°54' W 082°26'611.3
2019-Mar-10 09:00N 27°49' W 082°27'  

Dump ship's entire track history